Time;durP1;ratioP1;P1;durP2;ratioP2;P2;SDS_P1;SDS_P2;PMS_P1;PMS_P2;Temp;Humidity;BMP_temperature;BMP_pressure;BME280_temperature;BME280_humidity;BME280_pressure;Samples;Min_cycle;Max_cycle;Signal;HPM_P1;HPM_P2
2023/07/02 00:01:48;;;;;;;4.25;2.30;;;18.00;99.90;;;;;;4975176;28;20199;-41
2023/07/02 00:04:16;;;;;;;2.50;2.30;;;18.00;99.90;;;;;;4980712;28;20271;-42
2023/07/02 00:06:48;;;;;;;2.42;2.22;;;18.10;99.90;;;;;;4969860;28;20188;-41
2023/07/02 00:09:15;;;;;;;2.33;2.13;;;18.10;99.90;;;;;;4972024;28;20216;-42
2023/07/02 00:11:43;;;;;;;2.85;2.55;;;18.10;99.90;;;;;;4980560;28;20176;-42
2023/07/02 00:14:09;;;;;;;2.97;2.13;;;18.20;99.90;;;;;;4975726;28;20242;-43
2023/07/02 00:16:37;;;;;;;2.40;2.20;;;18.20;99.90;;;;;;4981757;28;20184;-42
2023/07/02 00:19:04;;;;;;;2.42;2.22;;;18.20;99.90;;;;;;4980115;28;20190;-42
2023/07/02 00:21:33;;;;;;;2.55;2.15;;;18.20;99.90;;;;;;4985712;28;20185;-44
2023/07/02 00:24:00;;;;;;;2.38;2.17;;;18.20;99.90;;;;;;4994707;28;20172;-42
2023/07/02 00:26:27;;;;;;;4.53;2.40;;;18.10;99.90;;;;;;4991276;28;20180;-42
2023/07/02 00:28:56;;;;;;;2.30;2.10;;;18.20;99.90;;;;;;4967377;28;20279;-41
2023/07/02 00:31:23;;;;;;;3.35;2.55;;;18.10;99.90;;;;;;4983223;28;20208;-43
2023/07/02 00:33:49;;;;;;;2.50;2.30;;;18.10;99.90;;;;;;4969722;28;20192;-42
2023/07/02 00:36:16;;;;;;;2.40;2.20;;;18.10;99.90;;;;;;4985344;28;20187;-39
2023/07/02 00:38:47;;;;;;;3.53;2.42;;;18.10;99.90;;;;;;4972076;28;20294;-41
2023/07/02 00:41:13;;;;;;;3.83;2.75;;;18.20;99.90;;;;;;4971818;28;20212;-42
2023/07/02 00:43:45;;;;;;;2.40;2.20;;;18.20;99.90;;;;;;4973839;28;20184;-41
2023/07/02 00:46:12;;;;;;;2.42;2.17;;;18.10;99.90;;;;;;4973593;28;20192;-42
2023/07/02 00:48:39;;;;;;;2.70;2.50;;;18.20;99.90;;;;;;4976428;28;20219;-42
2023/07/02 00:51:05;;;;;;;3.63;2.40;;;18.20;99.90;;;;;;4973103;28;20188;-41
2023/07/02 00:53:32;;;;;;;2.40;2.20;;;18.20;99.90;;;;;;4986695;28;20196;-41
2023/07/02 00:55:58;;;;;;;2.97;2.30;;;18.20;99.90;;;;;;4995108;28;20188;-42
2023/07/02 00:58:24;;;;;;;2.50;2.30;;;18.30;99.90;;;;;;4997174;28;20219;-42
2023/07/02 01:00:50;;;;;;;2.53;2.33;;;18.30;99.90;;;;;;4986781;28;20179;-43
2023/07/02 01:03:16;;;;;;;2.67;2.47;;;18.30;99.90;;;;;;4967832;28;20195;-42
2023/07/02 01:05:41;;;;;;;2.65;2.45;;;18.30;99.90;;;;;;4973794;28;20203;-41
2023/07/02 01:08:08;;;;;;;3.20;2.42;;;18.30;99.90;;;;;;4967996;28;20719;-38
2023/07/02 01:10:35;;;;;;;2.53;2.28;;;18.20;99.90;;;;;;4973785;28;20237;-43
2023/07/02 01:13:09;;;;;;;3.35;2.30;;;18.20;99.90;;;;;;4984965;28;20252;-43
2023/07/02 01:15:37;;;;;;;2.42;2.22;;;18.20;99.90;;;;;;4986456;28;20186;-42
2023/07/02 01:18:05;;;;;;;3.10;2.20;;;18.20;99.90;;;;;;4979567;28;20214;-41
2023/07/02 01:20:32;;;;;;;4.28;2.55;;;18.10;99.90;;;;;;4989421;28;20195;-41
2023/07/02 01:23:02;;;;;;;4.57;2.88;;;18.10;99.90;;;;;;4973438;28;20211;-41
2023/07/02 01:25:29;;;;;;;3.72;2.33;;;18.00;99.90;;;;;;4984251;28;20183;-43
2023/07/02 01:27:58;;;;;;;2.83;2.30;;;17.90;99.90;;;;;;4988813;28;20227;-42
2023/07/02 01:30:25;;;;;;;2.50;2.30;;;17.80;99.90;;;;;;4976366;28;20188;-42
2023/07/02 01:32:52;;;;;;;3.40;2.45;;;17.60;99.90;;;;;;4980343;28;20189;-42
2023/07/02 01:35:17;;;;;;;3.95;2.08;;;17.50;99.90;;;;;;4975835;28;20189;-41
2023/07/02 01:37:44;;;;;;;3.13;2.58;;;17.50;99.90;;;;;;4933003;28;1189086;-39
2023/07/02 01:40:10;;;;;;;2.85;2.40;;;17.40;99.90;;;;;;4979353;28;20214;-42
2023/07/02 01:42:36;;;;;;;2.60;2.40;;;17.40;99.90;;;;;;4973410;28;20224;-41
2023/07/02 01:45:02;;;;;;;2.67;2.17;;;17.40;99.90;;;;;;4969504;28;20226;-41
2023/07/02 01:47:28;;;;;;;3.05;2.78;;;17.30;99.90;;;;;;4977024;28;20217;-42
2023/07/02 01:49:54;;;;;;;2.55;2.30;;;17.30;99.90;;;;;;4981712;28;20180;-41
2023/07/02 01:52:20;;;;;;;2.75;2.50;;;17.30;99.90;;;;;;4973098;28;20617;-42
2023/07/02 01:54:46;;;;;;;4.00;2.55;;;17.30;99.90;;;;;;4988213;28;20184;-41
2023/07/02 01:57:12;;;;;;;2.78;2.50;;;17.30;99.90;;;;;;4972602;28;20214;-42
2023/07/02 01:59:38;;;;;;;3.15;2.65;;;17.30;99.90;;;;;;4985737;28;20181;-43
2023/07/02 02:02:04;;;;;;;3.33;2.55;;;17.30;99.90;;;;;;4963340;28;20257;-39
2023/07/02 02:04:30;;;;;;;2.50;2.30;;;17.40;99.90;;;;;;4982786;28;20188;-41
2023/07/02 02:06:56;;;;;;;2.42;2.10;;;17.40;99.90;;;;;;4985879;28;20239;-44
2023/07/02 02:09:22;;;;;;;2.90;2.38;;;17.40;99.90;;;;;;4970904;28;20250;-42
2023/07/02 02:11:49;;;;;;;2.28;2.13;;;17.40;99.90;;;;;;4973649;28;20180;-42
2023/07/02 02:14:16;;;;;;;2.50;2.30;;;17.40;99.90;;;;;;4986673;28;20180;-41
2023/07/02 02:16:45;;;;;;;2.47;2.28;;;17.40;99.90;;;;;;4994116;28;20188;-41
2023/07/02 02:19:12;;;;;;;2.95;2.20;;;17.40;99.90;;;;;;4986307;28;20200;-42
2023/07/02 02:21:38;;;;;;;2.30;2.10;;;17.40;99.90;;;;;;4973028;28;20218;-41
2023/07/02 02:24:07;;;;;;;3.85;2.30;;;17.30;99.90;;;;;;4973825;28;20184;-42
2023/07/02 02:26:34;;;;;;;2.42;2.20;;;17.30;99.90;;;;;;4973165;28;20188;-43
2023/07/02 02:29:00;;;;;;;2.63;2.42;;;17.30;99.90;;;;;;4988231;28;20180;-41
2023/07/02 02:31:26;;;;;;;3.30;2.20;;;17.30;99.90;;;;;;4981231;28;20271;-42
2023/07/02 02:33:52;;;;;;;3.88;1.95;;;17.40;99.90;;;;;;4973216;28;20180;-42
2023/07/02 02:36:19;;;;;;;2.67;2.20;;;17.40;99.90;;;;;;4972929;28;20184;-43
2023/07/02 02:38:45;;;;;;;2.30;2.10;;;17.40;99.90;;;;;;4983404;28;20243;-42
2023/07/02 02:41:11;;;;;;;4.15;2.70;;;17.40;99.90;;;;;;4972917;28;20191;-43
2023/07/02 02:43:45;;;;;;;2.53;2.33;;;17.30;99.90;;;;;;4987496;28;20269;-39
2023/07/02 02:46:21;;;;;;;2.92;2.65;;;17.30;99.90;;;;;;4973422;28;20188;-41
2023/07/02 02:48:47;;;;;;;2.78;2.55;;;17.20;99.90;;;;;;5002956;28;20211;-41
2023/07/02 02:51:13;;;;;;;3.88;2.63;;;17.30;99.90;;;;;;4973122;28;20184;-43
2023/07/02 02:53:38;;;;;;;3.03;2.50;;;17.30;99.90;;;;;;4982583;28;20216;-42
2023/07/02 02:56:04;;;;;;;3.13;2.83;;;17.30;99.90;;;;;;4970672;28;20192;-42
2023/07/02 02:58:30;;;;;;;3.47;3.08;;;17.20;99.90;;;;;;4988759;28;20208;-42
2023/07/02 03:00:56;;;;;;;3.15;2.85;;;17.20;99.90;;;;;;5008283;28;20275;-42
2023/07/02 03:03:24;;;;;;;2.95;2.75;;;17.20;99.90;;;;;;4976453;28;20193;-43
2023/07/02 03:05:50;;;;;;;5.15;3.03;;;17.20;99.90;;;;;;4983607;28;20187;-43
2023/07/02 03:08:16;;;;;;;3.50;3.17;;;17.30;99.90;;;;;;4976252;28;20243;-43
2023/07/02 03:10:42;;;;;;;4.00;2.70;;;17.30;99.90;;;;;;4983270;28;20176;-44
2023/07/02 03:13:08;;;;;;;5.25;3.60;;;17.20;99.90;;;;;;4982927;28;20219;-43
2023/07/02 03:15:34;;;;;;;4.03;3.08;;;17.10;99.90;;;;;;4981939;28;20222;-44
2023/07/02 03:17:59;;;;;;;10.13;3.75;;;17.00;99.90;;;;;;4985783;28;20294;-43
2023/07/02 03:20:25;;;;;;;3.47;3.17;;;16.80;99.90;;;;;;4992480;28;20184;-43
2023/07/02 03:22:51;;;;;;;9.18;4.35;;;16.80;99.90;;;;;;4990419;28;20188;-43
2023/07/02 03:25:17;;;;;;;4.22;3.45;;;16.80;99.90;;;;;;4975144;28;20189;-44
2023/07/02 03:27:43;;;;;;;6.00;4.23;;;16.70;99.90;;;;;;5002303;28;20302;-44
2023/07/02 03:30:09;;;;;;;4.97;3.43;;;16.70;99.90;;;;;;4976144;28;20256;-44
2023/07/02 03:32:34;;;;;;;4.77;3.43;;;16.70;99.90;;;;;;4985285;28;20183;-44
2023/07/02 03:35:01;;;;;;;4.57;3.73;;;16.60;99.90;;;;;;4975975;28;20649;-43
2023/07/02 03:37:27;;;;;;;4.13;3.73;;;16.60;99.90;;;;;;4989189;28;20228;-44
2023/07/02 03:39:52;;;;;;;5.13;3.28;;;16.60;99.90;;;;;;4974777;28;20187;-41
2023/07/02 03:42:18;;;;;;;3.93;3.13;;;16.60;99.90;;;;;;4983463;28;20188;-38
2023/07/02 03:44:44;;;;;;;5.73;3.93;;;16.60;99.90;;;;;;4990413;28;20256;-43
2023/07/02 03:47:12;;;;;;;5.33;3.53;;;16.60;99.90;;;;;;4976616;28;20216;-38
2023/07/02 03:49:38;;;;;;;4.27;3.43;;;16.60;99.90;;;;;;4975735;28;20184;-41
2023/07/02 03:52:04;;;;;;;3.37;2.87;;;16.60;99.90;;;;;;4984426;28;20180;-40
2023/07/02 03:54:29;;;;;;;4.30;3.03;;;16.60;99.90;;;;;;4983967;28;20176;-40
2023/07/02 03:56:55;;;;;;;3.63;3.28;;;16.70;99.90;;;;;;4987421;28;20212;-39
2023/07/02 03:59:21;;;;;;;3.30;3.00;;;16.70;99.90;;;;;;4969365;28;20184;-40
2023/07/02 04:01:47;;;;;;;4.30;3.50;;;16.70;99.90;;;;;;4976049;28;20637;-39
2023/07/02 04:04:13;;;;;;;3.50;3.20;;;16.60;99.90;;;;;;4973783;28;20193;-40
2023/07/02 04:06:39;;;;;;;3.13;2.93;;;16.60;99.90;;;;;;4975459;28;20203;-41
2023/07/02 04:09:05;;;;;;;3.07;2.50;;;16.60;99.90;;;;;;4979289;28;20184;-41
2023/07/02 04:11:31;;;;;;;2.97;2.75;;;16.60;99.90;;;;;;4998443;28;20192;-40
2023/07/02 04:13:57;;;;;;;3.73;2.80;;;16.60;99.90;;;;;;4978170;28;20191;-38
2023/07/02 04:16:22;;;;;;;3.83;2.53;;;16.70;99.90;;;;;;4975491;28;20182;-39
2023/07/02 04:18:48;;;;;;;3.10;2.40;;;16.70;99.90;;;;;;4986744;28;20254;-40
2023/07/02 04:21:14;;;;;;;3.53;2.53;;;16.70;99.90;;;;;;4975662;28;20208;-37
2023/07/02 04:23:40;;;;;;;2.47;2.27;;;16.70;99.90;;;;;;4977935;28;20188;-42
2023/07/02 04:26:06;;;;;;;3.08;2.50;;;16.70;99.90;;;;;;4971815;28;20192;-41
2023/07/02 04:28:31;;;;;;;2.47;2.27;;;16.70;99.90;;;;;;4975526;28;20263;-39
2023/07/02 04:30:57;;;;;;;2.80;2.43;;;16.70;99.90;;;;;;4974926;28;20176;-39
2023/07/02 04:33:23;;;;;;;2.40;2.20;;;16.70;99.90;;;;;;4977196;28;20207;-37
2023/07/02 04:35:49;;;;;;;2.55;2.20;;;16.70;99.90;;;;;;4987036;28;20183;-39
2023/07/02 04:38:16;;;;;;;2.17;2.00;;;16.70;99.90;;;;;;4973042;28;20219;-40
2023/07/02 04:40:44;;;;;;;2.58;2.38;;;16.70;99.90;;;;;;4988681;28;20263;-42
2023/07/02 04:43:10;;;;;;;2.30;2.10;;;16.80;99.90;;;;;;4972768;28;20203;-40
2023/07/02 04:45:36;;;;;;;2.43;1.90;;;16.80;99.90;;;;;;4999232;28;20182;-40
2023/07/02 04:48:03;;;;;;;2.83;2.22;;;16.80;99.90;;;;;;4978498;28;20211;-40
2023/07/02 04:50:29;;;;;;;3.17;2.00;;;16.80;99.90;;;;;;4961237;28;20177;-40
2023/07/02 04:52:55;;;;;;;2.47;2.27;;;16.80;99.90;;;;;;4990375;28;20199;-38
2023/07/02 04:55:21;;;;;;;2.57;2.37;;;16.80;99.90;;;;;;4971739;28;20212;-38
2023/07/02 04:57:47;;;;;;;2.85;2.65;;;16.80;99.90;;;;;;4971004;28;20203;-42
2023/07/02 05:00:14;;;;;;;3.92;2.58;;;16.80;99.90;;;;;;4984281;28;20649;-39
2023/07/02 05:02:40;;;;;;;5.35;2.63;;;16.80;99.90;;;;;;4988372;28;20239;-40
2023/07/02 05:05:07;;;;;;;2.97;2.73;;;16.80;99.90;;;;;;4974572;28;20180;-39
2023/07/02 05:07:33;;;;;;;3.23;2.63;;;16.80;99.90;;;;;;4976107;28;20212;-40
2023/07/02 05:09:59;;;;;;;2.83;2.53;;;16.80;99.90;;;;;;4969163;28;20203;-41
2023/07/02 05:12:24;;;;;;;3.35;2.30;;;16.80;99.90;;;;;;4983119;28;20222;-37
2023/07/02 05:14:50;;;;;;;2.30;2.10;;;16.70;99.90;;;;;;4978470;28;20184;-40
2023/07/02 05:17:16;;;;;;;2.87;2.50;;;16.70;99.90;;;;;;4987817;28;20206;-42
2023/07/02 05:19:42;;;;;;;4.60;2.50;;;16.80;99.90;;;;;;4982296;28;20225;-42
2023/07/02 05:22:09;;;;;;;2.90;2.70;;;16.80;99.90;;;;;;4975866;28;20230;-40
2023/07/02 05:24:35;;;;;;;2.72;2.53;;;16.80;99.90;;;;;;4986520;28;20188;-37
2023/07/02 05:27:01;;;;;;;4.63;2.50;;;16.80;99.90;;;;;;4987376;28;20214;-42
2023/07/02 05:29:27;;;;;;;2.70;2.40;;;16.90;99.90;;;;;;4979393;28;20183;-37
2023/07/02 05:31:53;;;;;;;2.85;2.45;;;16.90;99.90;;;;;;4976251;28;20180;-40
2023/07/02 05:34:20;;;;;;;2.60;2.40;;;17.00;99.90;;;;;;4975606;28;20187;-39
2023/07/02 05:36:46;;;;;;;3.10;2.80;;;16.90;99.90;;;;;;4977554;28;20267;-39
2023/07/02 05:39:13;;;;;;;2.20;2.00;;;17.00;99.90;;;;;;4984015;28;20200;-41
2023/07/02 05:41:40;;;;;;;4.30;2.30;;;17.00;99.90;;;;;;4982299;28;20175;-40
2023/07/02 05:44:07;;;;;;;2.97;2.38;;;17.00;99.90;;;;;;4995892;28;20176;-42
2023/07/02 05:46:33;;;;;;;2.97;2.60;;;17.10;99.90;;;;;;4983265;28;20180;-38
2023/07/02 05:48:59;;;;;;;3.13;1.90;;;17.10;99.90;;;;;;4973723;28;20203;-39
2023/07/02 05:51:26;;;;;;;2.10;1.90;;;17.20;99.90;;;;;;4974520;28;20177;-41
2023/07/02 05:53:52;;;;;;;4.88;2.10;;;17.20;99.90;;;;;;4988774;28;20181;-40
2023/07/02 05:56:18;;;;;;;2.38;2.17;;;17.20;99.90;;;;;;4982683;28;20241;-38
2023/07/02 05:58:46;;;;;;;3.25;2.28;;;17.30;99.90;;;;;;4972821;28;20309;-43
2023/07/02 06:01:12;;;;;;;2.72;2.38;;;17.40;99.90;;;;;;4963896;28;20193;-38
2023/07/02 06:03:38;;;;;;;4.85;2.35;;;17.40;99.90;;;;;;4996241;28;20187;-39
2023/07/02 06:06:03;;;;;;;2.95;2.38;;;17.40;99.90;;;;;;4971655;28;20184;-42
2023/07/02 06:08:29;;;;;;;4.18;2.42;;;17.40;99.90;;;;;;4977802;28;20303;-40
2023/07/02 06:10:55;;;;;;;4.28;3.08;;;17.50;99.90;;;;;;4972106;28;20185;-40
2023/07/02 06:13:21;;;;;;;3.03;2.40;;;17.60;99.90;;;;;;4982286;28;20213;-42
2023/07/02 06:15:47;;;;;;;3.85;2.53;;;17.60;99.90;;;;;;4958090;28;20212;-41
2023/07/02 06:18:13;;;;;;;5.57;2.88;;;17.70;99.90;;;;;;4985579;28;20210;-38
2023/07/02 06:20:39;;;;;;;5.47;3.03;;;17.80;99.90;;;;;;4969887;28;20181;-39
2023/07/02 06:23:05;;;;;;;6.55;3.50;;;17.90;99.90;;;;;;4972266;28;20188;-40
2023/07/02 06:25:31;;;;;;;5.57;3.30;;;18.10;99.90;;;;;;4993953;28;20239;-40
2023/07/02 06:27:58;;;;;;;3.53;3.22;;;18.20;99.90;;;;;;4971342;28;20208;-40
2023/07/02 06:30:27;;;;;;;6.35;3.30;;;18.20;99.90;;;;;;4973816;28;20188;-39
2023/07/02 06:32:53;;;;;;;5.10;4.22;;;18.20;99.90;;;;;;4976160;28;20180;-42
2023/07/02 06:35:20;;;;;;;8.40;4.07;;;18.10;99.90;;;;;;4977330;28;20267;-38
2023/07/02 06:37:46;;;;;;;4.75;3.92;;;18.10;99.90;;;;;;4975053;28;20221;-35
2023/07/02 06:40:12;;;;;;;6.72;4.00;;;18.20;99.90;;;;;;4987969;28;20183;-38
2023/07/02 06:42:38;;;;;;;8.02;4.47;;;18.20;99.90;;;;;;4970405;28;20189;-38
2023/07/02 06:45:05;;;;;;;6.25;4.00;;;18.20;99.90;;;;;;4982506;28;20216;-38
2023/07/02 06:47:30;;;;;;;6.70;4.22;;;18.30;99.90;;;;;;4991830;28;20196;-40
2023/07/02 06:49:56;;;;;;;7.22;4.00;;;18.30;99.90;;;;;;4975361;28;20191;-35
2023/07/02 06:52:22;;;;;;;6.55;4.20;;;18.30;99.90;;;;;;4979112;28;20192;-39
2023/07/02 06:54:48;;;;;;;7.55;4.40;;;18.40;99.90;;;;;;4979381;28;20218;-39
2023/07/02 06:57:14;;;;;;;8.15;4.50;;;18.40;99.90;;;;;;4978449;28;20212;-40
2023/07/02 06:59:40;;;;;;;5.18;3.80;;;18.50;99.90;;;;;;4993538;28;20238;-39
2023/07/02 07:02:06;;;;;;;6.72;4.90;;;18.50;99.90;;;;;;4976989;28;20179;-34
2023/07/02 07:04:34;;;;;;;7.55;4.72;;;18.60;99.90;;;;;;4977751;28;20236;-38
2023/07/02 07:07:02;;;;;;;7.22;5.13;;;18.60;99.90;;;;;;4997899;28;20696;-37
2023/07/02 07:09:31;;;;;;;7.78;5.15;;;18.50;99.90;;;;;;4964649;28;20214;-40
2023/07/02 07:11:58;;;;;;;7.80;4.97;;;18.50;99.90;;;;;;4985059;28;20180;-40
2023/07/02 07:14:24;;;;;;;7.40;5.32;;;18.40;99.90;;;;;;4981854;28;20176;-39
2023/07/02 07:16:53;;;;;;;8.75;5.90;;;18.40;99.90;;;;;;4977402;28;20203;-39
2023/07/02 07:19:19;;;;;;;7.63;5.63;;;18.40;99.90;;;;;;4982502;28;20191;-38
2023/07/02 07:21:45;;;;;;;11.63;5.88;;;18.40;99.90;;;;;;4993087;28;20180;-37
2023/07/02 07:24:11;;;;;;;11.32;6.38;;;18.50;99.90;;;;;;4976533;28;20279;-39
2023/07/02 07:26:37;;;;;;;10.52;7.03;;;18.50;99.90;;;;;;4978646;28;20188;-38
2023/07/02 07:29:04;;;;;;;11.10;6.43;;;18.50;99.90;;;;;;4976404;28;20208;-40
2023/07/02 07:31:30;;;;;;;9.23;6.90;;;18.50;99.90;;;;;;4976421;28;20206;-37
2023/07/02 07:33:55;;;;;;;12.55;6.90;;;18.50;99.90;;;;;;4982717;28;20184;-38
2023/07/02 07:36:21;;;;;;;12.38;7.15;;;18.60;99.90;;;;;;4974272;28;20177;-37
2023/07/02 07:38:49;;;;;;;13.02;7.90;;;18.70;99.90;;;;;;5006619;28;20215;-39
2023/07/02 07:41:15;;;;;;;11.60;6.78;;;18.70;99.90;;;;;;4978453;28;20184;-41
2023/07/02 07:43:41;;;;;;;9.75;7.55;;;18.70;99.90;;;;;;4996412;28;20243;-41
2023/07/02 07:46:11;;;;;;;10.18;7.30;;;18.80;99.90;;;;;;4976325;28;20180;-40
2023/07/02 07:48:40;;;;;;;11.20;8.32;;;18.80;99.90;;;;;;5002095;28;20215;-41
2023/07/02 07:51:05;;;;;;;11.35;8.13;;;18.90;99.90;;;;;;4995778;28;20175;-38
2023/07/02 07:53:31;;;;;;;11.05;8.18;;;18.80;99.90;;;;;;4984962;28;20189;-35
2023/07/02 07:55:59;;;;;;;11.95;7.88;;;18.90;99.90;;;;;;5007513;28;20216;-40
2023/07/02 07:58:25;;;;;;;11.65;8.35;;;18.90;99.90;;;;;;4982756;28;20196;-40
2023/07/02 08:00:51;;;;;;;11.88;8.43;;;18.90;99.90;;;;;;4991900;28;20268;-42
2023/07/02 08:03:18;;;;;;;13.90;8.38;;;19.00;99.90;;;;;;4983824;28;20237;-39
2023/07/02 08:05:44;;;;;;;14.13;8.75;;;19.20;99.90;;;;;;4987630;28;20188;-46
2023/07/02 08:08:15;;;;;;;15.88;9.38;;;19.70;99.90;;;;;;4985845;28;20260;-40
2023/07/02 08:10:42;;;;;;;14.55;9.15;;;20.00;99.90;;;;;;4987944;28;20181;-39
2023/07/02 08:13:09;;;;;;;14.18;9.27;;;20.20;99.90;;;;;;4985439;28;20175;-40
2023/07/02 08:15:39;;;;;;;15.07;9.68;;;20.50;99.90;;;;;;4971531;28;20176;-41
2023/07/02 08:18:08;;;;;;;13.77;9.40;;;20.60;99.90;;;;;;4972923;28;20222;-41
2023/07/02 08:20:37;;;;;;;15.02;9.70;;;20.80;99.90;;;;;;4991445;28;20211;-40
2023/07/02 08:23:04;;;;;;;16.70;9.70;;;21.00;99.90;;;;;;4975016;28;20180;-38
2023/07/02 08:25:32;;;;;;;16.58;9.60;;;21.20;99.90;;;;;;4990945;28;20184;-41
2023/07/02 08:28:01;;;;;;;13.82;9.57;;;21.10;99.90;;;;;;4974818;28;20298;-40
2023/07/02 08:30:27;;;;;;;12.35;8.93;;;20.90;99.90;;;;;;4982839;28;20188;-38
2023/07/02 08:32:55;;;;;;;15.13;9.70;;;20.70;99.90;;;;;;4989404;28;20203;-41
2023/07/02 08:35:27;;;;;;;12.32;8.77;;;20.60;99.90;;;;;;5000786;28;20180;-39
2023/07/02 08:37:57;;;;;;;13.40;8.90;;;20.50;99.90;;;;;;4983276;28;20208;-40
2023/07/02 08:40:30;;;;;;;15.10;9.32;;;20.50;99.90;;;;;;4997608;28;20192;-39
2023/07/02 08:43:00;;;;;;;13.70;9.07;;;20.70;99.90;;;;;;4978911;28;20280;-40
2023/07/02 08:45:33;;;;;;;15.60;8.80;;;20.60;99.90;;;;;;4999315;28;20238;-42
2023/07/02 08:47:59;;;;;;;15.00;9.23;;;20.80;99.90;;;;;;4985499;28;20211;-40
2023/07/02 08:50:26;;;;;;;11.80;9.27;;;20.90;99.90;;;;;;4973329;28;20204;-41
2023/07/02 08:52:55;;;;;;;14.15;9.77;;;21.10;99.90;;;;;;4995544;28;20179;-40
2023/07/02 08:55:22;;;;;;;14.05;9.18;;;21.30;99.90;;;;;;4968495;28;20180;-42
2023/07/02 08:58:00;;;;;;;13.38;9.07;;;21.60;99.90;;;;;;4971710;28;20208;-39
2023/07/02 09:00:35;;;;;;;14.32;9.75;;;21.90;99.90;;;;;;4973739;28;20192;-40
2023/07/02 09:03:32;;;;;;;14.38;9.27;;;22.30;99.90;;;;;;4972414;28;20194;-40
2023/07/02 09:06:01;;;;;;;13.75;9.65;;;22.70;99.90;;;;;;4960528;28;20189;-40
2023/07/02 09:08:29;;;;;;;14.20;9.10;;;22.90;99.90;;;;;;4989515;28;20214;-42
2023/07/02 09:11:06;;;;;;;11.82;8.85;;;23.00;99.90;;;;;;4972366;28;20183;-41
2023/07/02 09:13:41;;;;;;;10.90;9.38;;;22.90;99.90;;;;;;4984256;28;20270;-40
2023/07/02 09:16:31;;;;;;;13.65;9.25;;;22.70;99.90;;;;;;5008287;28;20187;-39
2023/07/02 09:19:05;;;;;;;14.88;9.75;;;22.70;99.90;;;;;;4992525;28;20187;-39
2023/07/02 09:21:47;;;;;;;17.73;10.45;;;22.40;99.90;;;;;;5008708;28;20274;-38
2023/07/02 09:24:17;;;;;;;18.23;10.15;;;22.50;99.90;;;;;;5001876;28;20187;-37
2023/07/02 09:26:45;;;;;;;16.52;10.25;;;22.60;99.90;;;;;;4976163;28;20283;-38
2023/07/02 09:29:12;;;;;;;14.68;10.27;;;22.60;99.90;;;;;;4976822;28;20243;-38
2023/07/02 09:31:48;;;;;;;16.05;10.75;;;22.60;99.90;;;;;;4976770;28;20180;-37
2023/07/02 09:34:14;;;;;;;16.80;12.80;;;22.40;99.90;;;;;;4976685;28;20179;-39
2023/07/02 09:36:43;;;;;;;18.35;12.77;;;22.30;99.90;;;;;;4989132;28;20196;-38
2023/07/02 09:39:12;;;;;;;18.25;12.57;;;22.30;99.90;;;;;;4957050;28;20188;-37
2023/07/02 09:41:40;;;;;;;17.98;13.65;;;22.40;99.90;;;;;;4989354;28;20185;-39
2023/07/02 09:44:08;;;;;;;19.25;14.07;;;22.50;99.90;;;;;;4976295;28;20191;-40
2023/07/02 09:46:36;;;;;;;22.13;15.70;;;22.60;99.90;;;;;;4992647;28;20187;-40
2023/07/02 09:49:02;;;;;;;19.65;13.45;;;22.50;99.90;;;;;;4991822;28;20302;-40
2023/07/02 09:51:29;;;;;;;16.70;12.98;;;22.30;99.90;;;;;;4975816;28;20201;-39
2023/07/02 09:53:55;;;;;;;17.95;12.05;;;22.40;99.90;;;;;;4976261;28;20186;-40
2023/07/02 09:56:21;;;;;;;15.73;12.10;;;22.50;99.90;;;;;;4975560;28;20172;-39
2023/07/02 09:58:47;;;;;;;16.70;12.52;;;22.50;99.90;;;;;;4976262;28;20199;-36
2023/07/02 10:01:13;;;;;;;19.08;12.30;;;22.70;99.90;;;;;;4976378;28;20275;-39
2023/07/02 10:03:38;;;;;;;20.27;13.48;;;22.80;99.90;;;;;;4976429;28;20183;-40
2023/07/02 10:06:06;;;;;;;18.67;13.45;;;23.00;99.90;;;;;;4976856;28;20832;-39
2023/07/02 10:08:33;;;;;;;16.60;13.15;;;22.80;99.90;;;;;;4987330;28;20215;-38
2023/07/02 10:11:12;;;;;;;17.17;12.65;;;22.70;99.90;;;;;;4983611;28;20238;-40
2023/07/02 10:13:40;;;;;;;16.92;12.35;;;22.60;99.90;;;;;;4984165;28;20240;-38
2023/07/02 10:16:07;;;;;;;18.90;13.52;;;22.40;99.90;;;;;;4996080;28;20266;-40
2023/07/02 10:18:34;;;;;;;17.38;13.27;;;22.20;99.90;;;;;;4965551;28;20262;-39
2023/07/02 10:21:00;;;;;;;19.10;12.80;;;22.20;99.90;;;;;;4975097;28;20180;-39
2023/07/02 10:23:35;;;;;;;18.67;13.63;;;22.40;99.90;;;;;;4982510;28;20187;-40
2023/07/02 10:26:19;;;;;;;22.10;14.88;;;22.70;99.90;;;;;;4964066;28;20184;-38
2023/07/02 10:29:18;;;;;;;18.77;14.32;;;22.70;99.90;;;;;;4980053;28;20239;-43
2023/07/02 10:31:52;;;;;;;21.20;15.07;;;22.90;99.90;;;;;;4992723;28;20210;-40
2023/07/02 10:34:35;;;;;;;20.40;16.05;;;23.30;99.90;;;;;;5005384;28;20188;-40
2023/07/02 10:37:03;;;;;;;24.42;17.42;;;23.40;99.90;;;;;;5004146;28;20251;-39
2023/07/02 10:39:30;;;;;;;19.23;15.35;;;23.50;99.90;;;;;;4992544;28;20184;-40
2023/07/02 10:42:09;;;;;;;20.80;15.95;;;23.60;99.90;;;;;;4974646;28;20263;-40
2023/07/02 10:44:52;;;;;;;22.10;14.70;;;23.40;99.90;;;;;;4960557;28;20211;-38
2023/07/02 10:47:19;;;;;;;21.63;15.82;;;23.60;99.90;;;;;;4961315;28;20213;-37
2023/07/02 10:49:45;;;;;;;22.75;16.20;;;23.90;99.90;;;;;;4992068;28;20183;-38
2023/07/02 10:52:11;;;;;;;24.70;16.85;;;23.90;99.90;;;;;;4979521;28;20184;-40
2023/07/02 10:54:45;;;;;;;19.80;16.00;;;24.10;99.90;;;;;;4979543;28;20188;-39
2023/07/02 10:57:15;;;;;;;21.70;16.05;;;23.70;99.90;;;;;;4979233;28;20211;-40
2023/07/02 10:59:40;;;;;;;22.33;16.88;;;23.70;99.90;;;;;;4979169;28;20184;-39
2023/07/02 11:02:09;;;;;;;25.58;17.20;;;23.70;99.90;;;;;;4984844;28;20185;-37
2023/07/02 11:04:38;;;;;;;24.27;16.65;;;23.80;99.90;;;;;;4983921;28;20223;-39
2023/07/02 11:07:04;;;;;;;22.40;16.13;;;23.50;99.90;;;;;;4994142;28;20228;-39
2023/07/02 11:09:30;;;;;;;20.85;15.80;;;23.20;99.90;;;;;;4979086;28;20180;-38
2023/07/02 11:11:59;;;;;;;20.42;16.17;;;23.30;99.90;;;;;;4979111;28;20241;-39
2023/07/02 11:14:35;;;;;;;23.30;15.75;;;23.40;99.90;;;;;;4992425;28;20264;-40
2023/07/02 11:17:06;;;;;;;21.42;16.65;;;23.50;99.90;;;;;;4992046;28;20207;-40
2023/07/02 11:19:33;;;;;;;23.23;15.63;;;23.50;99.90;;;;;;4975430;28;20181;-39
2023/07/02 11:22:00;;;;;;;18.95;14.70;;;23.40;99.90;;;;;;4993012;28;20172;-38
2023/07/02 11:24:34;;;;;;;19.48;14.43;;;23.60;99.90;;;;;;4980595;28;20172;-40
2023/07/02 11:27:06;;;;;;;21.20;14.80;;;23.90;99.90;;;;;;4994736;28;20200;-37
2023/07/02 11:29:33;;;;;;;19.38;14.82;;;24.20;99.90;;;;;;4978574;28;20192;-39
2023/07/02 11:32:09;;;;;;;19.80;14.18;;;24.40;99.90;;;;;;4986962;28;20180;-39
2023/07/02 11:34:37;;;;;;;21.83;15.48;;;24.60;99.90;;;;;;4989474;28;20176;-40
2023/07/02 11:37:04;;;;;;;19.17;14.82;;;24.60;99.90;;;;;;4977573;28;20219;-40
2023/07/02 11:39:30;;;;;;;22.85;15.07;;;24.60;99.90;;;;;;4978567;28;20168;-41
2023/07/02 11:41:56;;;;;;;20.30;15.20;;;24.70;99.90;;;;;;4978173;28;20184;-36
2023/07/02 11:44:22;;;;;;;20.13;15.48;;;24.70;99.90;;;;;;4978949;28;20234;-40
2023/07/02 11:46:48;;;;;;;17.98;14.27;;;24.70;99.90;;;;;;4982968;28;20184;-40
2023/07/02 11:49:14;;;;;;;18.02;13.50;;;24.80;99.90;;;;;;4994404;28;20207;-40
2023/07/02 11:51:46;;;;;;;16.88;12.82;;;24.70;99.90;;;;;;4987652;28;20180;-40
2023/07/02 11:54:12;;;;;;;18.88;13.45;;;24.90;99.90;;;;;;4958975;28;20184;-40
2023/07/02 11:56:38;;;;;;;19.27;13.68;;;25.30;99.90;;;;;;4978064;28;20200;-40
2023/07/02 11:59:04;;;;;;;19.13;13.95;;;25.60;99.90;;;;;;4991045;28;20193;-40
2023/07/02 12:01:29;;;;;;;16.80;12.73;;;25.40;99.90;;;;;;4991433;28;20196;-38
2023/07/02 12:03:55;;;;;;;18.55;13.75;;;25.20;99.90;;;;;;4974705;28;20185;-39
2023/07/02 12:06:21;;;;;;;21.08;14.65;;;25.10;99.90;;;;;;4988803;28;20239;-40
2023/07/02 12:08:47;;;;;;;20.13;14.48;;;25.00;99.90;;;;;;4977975;28;20216;-37
2023/07/02 12:11:13;;;;;;;18.50;14.45;;;25.20;99.90;;;;;;4978131;28;20180;-39
2023/07/02 12:13:38;;;;;;;19.83;15.10;;;25.60;99.90;;;;;;4977930;28;20173;-37
2023/07/02 12:16:04;;;;;;;18.13;14.02;;;25.90;99.90;;;;;;4992530;28;20192;-40
2023/07/02 12:18:30;;;;;;;20.25;14.80;;;26.10;99.90;;;;;;4994159;28;20206;-37
2023/07/02 12:20:56;;;;;;;18.42;13.93;;;26.20;99.90;;;;;;4977243;28;20181;-40
2023/07/02 12:23:22;;;;;;;18.48;13.75;;;26.30;99.90;;;;;;4978686;28;20187;-38
2023/07/02 12:25:47;;;;;;;17.83;14.52;;;26.40;99.90;;;;;;4993870;28;20260;-38
2023/07/02 12:28:14;;;;;;;18.67;13.52;;;26.30;99.90;;;;;;4985731;28;20271;-40
2023/07/02 12:30:40;;;;;;;18.88;14.20;;;26.60;99.90;;;;;;4976511;28;20208;-38
2023/07/02 12:33:06;;;;;;;18.27;14.02;;;26.50;99.90;;;;;;4977565;28;20262;-39
2023/07/02 12:35:32;;;;;;;17.83;14.20;;;26.50;99.90;;;;;;4977452;28;20188;-40
2023/07/02 12:37:58;;;;;;;18.58;13.88;;;26.40;99.90;;;;;;4976526;28;20228;-40
2023/07/02 12:40:23;;;;;;;19.95;14.48;;;26.50;99.90;;;;;;4973944;28;20188;-40
2023/07/02 12:42:50;;;;;;;17.45;13.95;;;26.50;99.90;;;;;;4989258;28;20187;-40